Mc Allen Miller International Airport
KMFE : now visible

Airfield :











YOU CAN JOIN US ON...

 
LOGIN :

Register | Disclaimer

   EN    FR    IT 

 









Legend :    VFR   Marginal VFR   IFR   Intensive IFR   Very Intensive IFR
Visi :
Ceiling :
>= 8 km
>= 3000ft
5 to 8 km
1000 to 3000 ft
1500m to 5 km
500 to 1000 ft
800 to 1500m
200 to 500 ft
< 800m
< 200 ft
Symbols :   Thunderstorms  Fog  Heavy snow  Heavy precipitations  Wind > 20 kt






- Airport Elevation : 107 ft
- IATA code : MFE


KMFE - Mc Allen Miller International

CURRENT METAR :
  • 230653Z AUTO 14005KT 10SM CLR 26/23 A2995 RMK AO2 SLP141 T02610233

EXPIRED METARs :
  • 230553Z AUTO 14006KT 10SM CLR 27/23 A2997 RMK AO2 SLP146 T02670228 10333 20267 403560250 51020
  • 230453Z AUTO 14006KT 10SM CLR 27/23 A2996 RMK AO2 SLP143 T02720228
  • 230353Z 13007KT 10SM CLR 28/22 A2993 RMK AO2 SLP132 T02780222
  • 230253Z 13009KT 10SM CLR 29/22 A2991 RMK AO2 SLP126 T02940217 52011

TAF KMFE
Valid from the 23 at 06:00 until the 24 at 06:00 UTC


230527Z 2306/2406 14006KT P6SM FEW030 SCT250
FM231500 15011KT P6SM SCT040 SCT060
PROB30 2315/2318 4SM TSRA BR BKN025CB
FM231800 13009KT P6SM VCSH SCT035 BKN070
PROB30 2318/2324 3SM TSRA BR BKN025CB
FM240300 12008KT P6SM SCT022 BKN100
PROB30 2404/2406 4SM -SHRA BR BKN022
KZHU FIR / North America



MET'MAP, your aeronautical weather chart ! - Copyright ORBIFLY December 2007 - Disclaimer

ORBIFLY MET'MAP TEAM :

Programming & Development : Alexandra Zaïnal
Original concept : Baudouin d'Aumeries
Technical & hardware support : Manuel Goepfert
Assistance : Marc-Olivier Méhu




SOURCES & CREDITS :

   NOAA       Earth
Advisory